Time;durP1;ratioP1;P1;durP2;ratioP2;P2;SDS_P1;SDS_P2;PMS_P1;PMS_P2;Temp;Humidity;BMP_temperature;BMP_pressure;BME280_temperature;BME280_humidity;BME280_pressure;Samples;Min_cycle;Max_cycle;Signal;HPM_P1;HPM_P2
2022/11/02 00:00:22;;;;;;;1.45;1.05;;;16.30;66.00;;;;;;5081963;28;20048;-64
2022/11/02 00:02:48;;;;;;;4.75;0.95;;;16.20;65.70;;;;;;5101161;28;20044;-64
2022/11/02 00:05:14;;;;;;;2.13;0.60;;;16.20;65.80;;;;;;5098549;28;20026;-63
2022/11/02 00:07:40;;;;;;;2.78;1.20;;;16.30;65.80;;;;;;5109931;28;20027;-64
2022/11/02 00:10:08;;;;;;;1.58;0.80;;;16.30;65.70;;;;;;5108666;28;20153;-64
2022/11/02 00:12:33;;;;;;;1.70;0.77;;;16.30;65.60;;;;;;5110494;28;20173;-67
2022/11/02 00:14:59;;;;;;;1.38;0.60;;;16.30;65.70;;;;;;5099559;28;20094;-68
2022/11/02 00:17:25;;;;;;;3.60;0.63;;;16.30;66.30;;;;;;5110145;28;20046;-64
2022/11/02 00:19:51;;;;;;;3.05;0.75;;;16.20;65.70;;;;;;5102916;28;20025;-68
2022/11/02 00:22:17;;;;;;;1.17;0.60;;;16.20;65.70;;;;;;5108113;28;20038;-68
2022/11/02 00:24:42;;;;;;;0.60;0.55;;;16.30;65.90;;;;;;5087164;28;20494;-67
2022/11/02 00:27:08;;;;;;;1.25;0.40;;;16.20;66.00;;;;;;5109037;28;20020;-67
2022/11/02 00:29:34;;;;;;;1.55;0.70;;;16.20;66.00;;;;;;5099243;28;20043;-66
2022/11/02 00:32:00;;;;;;;2.40;0.60;;;16.20;66.10;;;;;;5103486;28;20429;-66
2022/11/02 00:34:26;;;;;;;1.50;0.70;;;16.20;66.20;;;;;;5100577;28;20024;-67
2022/11/02 00:36:52;;;;;;;2.17;0.63;;;16.20;67.00;;;;;;5105137;28;20032;-66
2022/11/02 00:39:18;;;;;;;8.18;1.00;;;16.10;67.50;;;;;;5102282;28;20021;-67
2022/11/02 00:41:44;;;;;;;1.45;0.73;;;15.90;68.20;;;;;;5091838;28;20031;-67
2022/11/02 00:44:10;;;;;;;0.88;0.82;;;15.80;68.70;;;;;;5104978;28;20428;-64
2022/11/02 00:46:35;;;;;;;5.15;1.08;;;15.80;69.30;;;;;;5082288;28;20040;-66
2022/11/02 00:49:01;;;;;;;1.23;0.80;;;15.60;69.50;;;;;;5093825;28;20027;-66
2022/11/02 00:51:27;;;;;;;1.45;0.80;;;15.60;70.00;;;;;;5095894;28;20115;-68
2022/11/02 00:53:52;;;;;;;1.73;0.55;;;15.50;70.20;;;;;;5106755;28;20553;-67
2022/11/02 00:56:18;;;;;;;3.22;0.75;;;15.50;70.30;;;;;;5098260;28;20534;-64
2022/11/02 00:58:43;;;;;;;1.30;0.88;;;15.50;70.50;;;;;;5109005;28;20020;-64
2022/11/02 01:01:09;;;;;;;1.50;0.57;;;15.40;70.50;;;;;;5079117;28;20135;-65
2022/11/02 01:03:35;;;;;;;1.15;0.68;;;15.40;70.60;;;;;;5100566;28;20078;-64
2022/11/02 01:06:12;;;;;;;3.40;0.77;;;15.40;71.40;;;;;;5096129;28;20044;-64
2022/11/02 01:08:38;;;;;;;2.45;0.88;;;15.40;70.80;;;;;;5088420;28;20035;-64
2022/11/02 01:11:19;;;;;;;5.50;1.00;;;15.30;70.80;;;;;;5097533;28;20028;-63
2022/11/02 01:13:45;;;;;;;3.85;0.90;;;15.30;70.70;;;;;;5086251;28;20020;-64
2022/11/02 01:16:12;;;;;;;1.00;0.50;;;15.30;70.70;;;;;;5100812;28;20507;-67
2022/11/02 01:18:38;;;;;;;1.98;0.82;;;15.30;70.60;;;;;;5095779;28;20536;-67
2022/11/02 01:21:04;;;;;;;1.77;1.25;;;15.30;70.50;;;;;;5108536;28;20399;-67
2022/11/02 01:23:37;;;;;;;4.70;0.90;;;15.30;70.40;;;;;;5111708;28;20028;-64
2022/11/02 01:26:08;;;;;;;10.80;1.13;;;15.40;70.40;;;;;;5107727;28;20050;-63
2022/11/02 01:28:34;;;;;;;2.85;0.73;;;15.30;70.40;;;;;;5104694;28;20073;-64
2022/11/02 01:31:00;;;;;;;3.65;1.02;;;15.30;70.70;;;;;;5090987;28;20496;-64
2022/11/02 01:33:26;;;;;;;8.98;1.20;;;15.30;70.80;;;;;;5107429;28;20142;-63
2022/11/02 01:35:53;;;;;;;1.98;0.98;;;15.30;70.90;;;;;;5093071;28;20024;-64
2022/11/02 01:38:19;;;;;;;0.50;0.45;;;15.30;70.80;;;;;;5100936;28;20028;-64
2022/11/02 01:40:47;;;;;;;0.47;0.47;;;15.40;70.90;;;;;;5098455;28;20027;-63
2022/11/02 01:43:28;;;;;;;1.42;0.50;;;15.40;70.90;;;;;;5102506;28;20028;-63
2022/11/02 01:46:12;;;;;;;0.40;0.35;;;15.40;70.80;;;;;;5094432;27;20042;-64
2022/11/02 01:48:42;;;;;;;1.45;0.50;;;15.50;70.70;;;;;;5098371;28;20047;-63
2022/11/02 01:51:16;;;;;;;2.53;0.52;;;15.40;70.90;;;;;;5103155;28;20420;-63
2022/11/02 01:53:44;;;;;;;6.93;1.15;;;15.50;70.80;;;;;;5102259;28;20598;-67
2022/11/02 01:56:13;;;;;;;0.55;0.40;;;15.40;68.50;;;;;;5109731;28;20110;-67
2022/11/02 01:58:39;;;;;;;0.82;0.32;;;15.20;67.20;;;;;;5103225;28;20467;-67
2022/11/02 02:01:05;;;;;;;0.73;0.40;;;15.00;68.10;;;;;;5089216;28;20048;-67
2022/11/02 02:03:34;;;;;;;0.45;0.45;;;14.90;68.10;;;;;;5104003;28;20042;-67
2022/11/02 02:06:08;;;;;;;0.93;0.60;;;14.70;67.80;;;;;;5091071;28;20024;-67
2022/11/02 02:08:38;;;;;;;0.43;0.30;;;14.60;67.70;;;;;;5082587;28;20111;-67
2022/11/02 02:11:27;;;;;;;0.85;0.40;;;14.40;67.40;;;;;;5101620;28;20058;-67
2022/11/02 02:14:01;;;;;;;0.35;0.35;;;14.30;67.40;;;;;;5100873;28;20435;-67
2022/11/02 02:17:05;;;;;;;0.80;0.80;;;14.20;67.90;;;;;;5101937;28;20032;-63
2022/11/02 02:19:40;;;;;;;0.20;0.20;;;14.10;67.70;;;;;;5089236;28;20463;-66
2022/11/02 02:22:12;;;;;;;1.55;0.20;;;13.90;68.40;;;;;;5078136;28;20020;-66
2022/11/02 02:24:48;;;;;;;0.25;0.20;;;13.90;68.70;;;;;;5104257;28;20082;-66
2022/11/02 02:27:32;;;;;;;5.50;0.45;;;13.90;68.90;;;;;;5102869;28;20055;-66
2022/11/02 02:30:04;;;;;;;1.80;0.30;;;13.90;68.90;;;;;;5098086;28;20450;-67
2022/11/02 02:32:37;;;;;;;0.30;0.30;;;13.90;69.50;;;;;;5099508;28;20149;-66
2022/11/02 02:35:23;;;;;;;1.15;0.50;;;13.90;68.80;;;;;;5089430;28;20395;-66
2022/11/02 02:37:59;;;;;;;0.40;0.30;;;14.00;68.90;;;;;;5089485;28;20569;-68
2022/11/02 02:40:36;;;;;;;0.30;0.30;;;14.00;69.00;;;;;;5091674;28;20024;-67
2022/11/02 02:43:11;;;;;;;0.20;0.20;;;14.00;69.40;;;;;;5089204;28;20040;-73
2022/11/02 02:45:48;;;;;;;0.25;0.25;;;13.90;69.90;;;;;;5093249;28;20019;-64
2022/11/02 02:48:19;;;;;;;0.40;0.40;;;13.90;70.10;;;;;;5100705;28;20549;-64
2022/11/02 02:50:48;;;;;;;1.25;0.82;;;13.90;70.20;;;;;;5092909;28;20024;-64
2022/11/02 02:53:18;;;;;;;0.50;0.50;;;13.90;70.20;;;;;;5109237;28;20035;-64
2022/11/02 02:55:46;;;;;;;0.40;0.40;;;13.90;70.30;;;;;;5112454;27;20028;-64
2022/11/02 02:58:29;;;;;;;1.40;0.32;;;13.90;70.20;;;;;;5094309;28;20023;-64
2022/11/02 03:00:57;;;;;;;1.05;0.50;;;13.90;70.30;;;;;;5102970;28;20512;-64
2022/11/02 03:03:25;;;;;;;0.30;0.30;;;13.80;70.60;;;;;;5094734;28;20024;-64
2022/11/02 03:06:14;;;;;;;0.40;0.40;;;13.80;70.70;;;;;;5101265;28;20068;-67
2022/11/02 03:08:45;;;;;;;1.55;0.88;;;13.80;70.70;;;;;;5083976;28;20028;-67
2022/11/02 03:11:16;;;;;;;1.83;0.90;;;13.80;71.00;;;;;;5104507;28;20470;-68
2022/11/02 03:14:04;;;;;;;2.45;1.10;;;13.80;71.00;;;;;;5101890;28;20024;-67
2022/11/02 03:16:38;;;;;;;0.80;0.45;;;13.80;70.90;;;;;;5102281;28;20039;-68
2022/11/02 03:19:17;;;;;;;0.77;0.77;;;13.80;70.90;;;;;;5097216;28;20031;-64
2022/11/02 03:21:47;;;;;;;1.48;0.47;;;13.90;71.10;;;;;;5107779;28;20011;-64
2022/11/02 03:24:19;;;;;;;1.05;0.43;;;13.90;71.00;;;;;;5097968;28;20034;-64
2022/11/02 03:27:14;;;;;;;2.45;0.63;;;14.00;70.90;;;;;;5105826;28;20024;-64
2022/11/02 03:29:48;;;;;;;3.50;0.50;;;14.10;70.70;;;;;;5099948;28;20035;-64
2022/11/02 03:32:23;;;;;;;0.93;0.52;;;14.10;70.70;;;;;;5085239;28;20047;-64
2022/11/02 03:34:56;;;;;;;0.35;0.32;;;14.10;70.70;;;;;;5088340;28;20058;-64
2022/11/02 03:37:48;;;;;;;1.55;0.63;;;14.20;70.60;;;;;;5087597;28;20111;-67
2022/11/02 03:40:23;;;;;;;4.88;0.82;;;14.20;70.60;;;;;;5085719;28;20029;-68
2022/11/02 03:42:51;;;;;;;0.90;0.43;;;14.20;70.70;;;;;;5086963;28;20056;-67
2022/11/02 03:45:25;;;;;;;1.30;0.65;;;14.10;70.70;;;;;;5100077;28;20029;-68
2022/11/02 03:47:55;;;;;;;2.95;0.73;;;14.10;70.80;;;;;;5085564;28;20027;-64
2022/11/02 03:50:22;;;;;;;1.65;0.63;;;14.10;70.70;;;;;;5093546;28;20539;-67
2022/11/02 03:52:56;;;;;;;2.10;0.90;;;14.10;70.60;;;;;;5084838;28;20024;-67
2022/11/02 03:55:30;;;;;;;1.35;0.60;;;14.20;70.60;;;;;;5088693;28;20066;-67
2022/11/02 03:57:57;;;;;;;1.27;0.60;;;14.20;70.50;;;;;;5087829;28;20080;-68
2022/11/02 04:00:25;;;;;;;1.65;0.85;;;14.20;70.40;;;;;;5088958;28;20475;-66
2022/11/02 04:02:59;;;;;;;1.48;0.75;;;14.20;70.30;;;;;;5087589;28;20106;-66
2022/11/02 04:05:31;;;;;;;16.02;1.33;;;14.20;70.30;;;;;;5098411;28;20387;-67
2022/11/02 04:16:12;;;;;;;2.15;0.50;;;14.20;70.30;;;;;;5090873;28;20089;-66
2022/11/02 04:21:23;;;;;;;2.17;1.05;;;14.10;70.10;;;;;;5096356;28;20391;-66
2022/11/02 04:26:32;;;;;;;3.33;1.45;;;14.20;69.90;;;;;;5086374;28;20570;-66
2022/11/02 04:28:58;;;;;;;2.70;1.10;;;14.20;70.00;;;;;;5094884;28;20032;-63
2022/11/02 04:31:23;;;;;;;1.92;0.60;;;14.10;69.90;;;;;;5101816;28;20032;-63
2022/11/02 04:33:49;;;;;;;3.63;0.68;;;14.20;69.80;;;;;;5101626;28;20052;-63
2022/11/02 04:36:15;;;;;;;0.80;0.63;;;14.10;69.60;;;;;;5105665;28;20036;-64
2022/11/02 04:38:40;;;;;;;1.58;0.80;;;14.20;69.60;;;;;;5101779;28;20024;-63
2022/11/02 04:43:55;;;;;;;2.83;0.80;;;14.20;69.30;;;;;;5107378;28;20107;-63
2022/11/02 04:46:23;;;;;;;4.38;0.98;;;14.20;69.90;;;;;;5105396;28;20094;-64
2022/11/02 04:48:50;;;;;;;2.55;1.05;;;14.20;69.10;;;;;;5111381;28;20441;-63
2022/11/02 04:51:16;;;;;;;3.85;1.38;;;14.30;68.90;;;;;;5098776;28;20019;-64
2022/11/02 04:53:41;;;;;;;2.53;1.17;;;14.30;68.70;;;;;;5104574;28;20390;-65
2022/11/02 04:56:07;;;;;;;1.88;0.82;;;14.30;68.70;;;;;;5107966;28;20028;-63
2022/11/02 04:58:33;;;;;;;1.70;1.27;;;14.30;68.50;;;;;;5102438;28;20470;-67
2022/11/02 05:01:07;;;;;;;1.33;0.90;;;14.30;68.60;;;;;;5107503;28;20071;-67
2022/11/02 05:03:34;;;;;;;2.50;1.05;;;14.40;68.50;;;;;;5113686;28;20031;-67
2022/11/02 05:06:00;;;;;;;3.75;1.25;;;14.40;68.60;;;;;;5107118;28;20034;-64
2022/11/02 05:08:26;;;;;;;3.70;0.90;;;14.40;68.50;;;;;;5091607;28;20065;-64
2022/11/02 05:10:55;;;;;;;2.55;1.25;;;14.40;68.40;;;;;;5092929;28;20048;-64
2022/11/02 05:13:25;;;;;;;2.22;0.98;;;14.40;68.40;;;;;;5090756;28;20036;-68
2022/11/02 05:15:54;;;;;;;1.92;0.95;;;14.40;68.40;;;;;;5091265;28;20051;-68
2022/11/02 05:18:19;;;;;;;1.15;0.80;;;14.40;68.40;;;;;;5092005;28;20077;-67
2022/11/02 05:20:53;;;;;;;1.58;1.15;;;14.40;68.50;;;;;;5091918;28;20028;-67
2022/11/02 05:23:20;;;;;;;1.33;0.73;;;14.40;68.50;;;;;;5092337;28;20024;-67
2022/11/02 05:26:00;;;;;;;1.13;0.77;;;14.40;68.70;;;;;;5091654;28;20016;-68
2022/11/02 05:28:27;;;;;;;7.28;1.15;;;14.40;68.40;;;;;;5090012;28;20387;-64
2022/11/02 05:30:53;;;;;;;1.25;0.85;;;14.40;68.60;;;;;;5089447;28;20020;-65
2022/11/02 05:33:19;;;;;;;1.58;1.05;;;14.30;68.50;;;;;;5092228;28;20161;-66
2022/11/02 05:35:45;;;;;;;3.63;1.27;;;14.30;68.60;;;;;;5093512;28;20096;-65
2022/11/02 05:38:11;;;;;;;1.98;1.00;;;14.30;68.70;;;;;;5092865;28;20020;-65
2022/11/02 05:40:39;;;;;;;2.70;0.70;;;14.30;68.80;;;;;;5076895;28;20172;-65
2022/11/02 05:43:08;;;;;;;5.43;0.88;;;14.30;68.80;;;;;;5084856;28;20137;-64
2022/11/02 05:45:34;;;;;;;3.55;0.80;;;14.30;68.80;;;;;;5086952;28;20034;-64
2022/11/02 05:48:01;;;;;;;3.35;1.50;;;14.30;68.80;;;;;;5087970;28;20405;-65
2022/11/02 05:50:27;;;;;;;5.55;1.00;;;14.30;68.80;;;;;;5089099;28;20028;-64
2022/11/02 05:52:52;;;;;;;2.60;1.02;;;14.30;68.80;;;;;;5090907;28;20028;-64
2022/11/02 05:55:18;;;;;;;5.10;1.90;;;14.40;68.80;;;;;;5090293;28;20426;-67
2022/11/02 05:57:50;;;;;;;1.85;0.65;;;14.40;68.60;;;;;;5087241;28;20032;-68
2022/11/02 06:00:16;;;;;;;5.78;1.23;;;14.40;68.70;;;;;;5087404;28;20135;-67
2022/11/02 06:02:41;;;;;;;1.50;0.70;;;14.40;68.80;;;;;;5086126;28;20131;-67
2022/11/02 06:05:07;;;;;;;1.77;0.90;;;14.40;68.80;;;;;;5095724;28;20031;-68
2022/11/02 06:07:33;;;;;;;3.72;0.95;;;14.40;68.80;;;;;;5088655;28;20055;-68
2022/11/02 06:09:59;;;;;;;6.85;1.20;;;14.30;68.80;;;;;;5101510;28;20027;-67
2022/11/02 06:12:24;;;;;;;3.67;0.70;;;14.30;68.90;;;;;;5085154;28;20039;-68
2022/11/02 06:14:50;;;;;;;8.85;1.73;;;14.30;69.00;;;;;;5089485;28;20043;-64
2022/11/02 06:17:16;;;;;;;3.30;1.60;;;14.30;69.10;;;;;;5091141;28;20074;-64
2022/11/02 06:19:41;;;;;;;2.25;1.02;;;14.30;69.10;;;;;;5091522;28;20054;-63
2022/11/02 06:22:09;;;;;;;3.90;1.00;;;14.30;69.10;;;;;;5098529;28;20301;-64
2022/11/02 06:24:35;;;;;;;3.30;1.40;;;14.30;69.30;;;;;;5092800;28;20479;-63
2022/11/02 06:27:01;;;;;;;2.50;1.15;;;14.30;69.30;;;;;;5083523;28;20047;-63
2022/11/02 06:29:27;;;;;;;3.40;1.50;;;14.30;69.30;;;;;;5089672;28;20028;-63
2022/11/02 06:31:52;;;;;;;2.78;1.38;;;14.30;69.20;;;;;;5086960;28;20115;-63
2022/11/02 06:34:18;;;;;;;6.10;1.05;;;14.30;69.20;;;;;;5091499;28;20036;-63
2022/11/02 06:36:44;;;;;;;3.72;1.23;;;14.20;69.20;;;;;;5090799;28;20498;-66
2022/11/02 06:39:09;;;;;;;3.33;1.45;;;14.30;69.30;;;;;;5098516;28;20042;-67
2022/11/02 06:41:35;;;;;;;4.20;1.52;;;14.30;69.30;;;;;;5092321;28;20028;-66
2022/11/02 06:44:04;;;;;;;0.68;0.50;;;14.20;69.90;;;;;;5094452;28;20028;-66
2022/11/02 06:46:29;;;;;;;2.53;0.75;;;14.20;69.50;;;;;;5091379;28;20039;-66
2022/11/02 06:48:55;;;;;;;0.90;0.75;;;14.20;69.50;;;;;;5084826;28;20028;-67
2022/11/02 06:51:21;;;;;;;1.98;1.13;;;14.20;69.60;;;;;;5096655;28;20038;-67
2022/11/02 06:53:50;;;;;;;3.30;0.75;;;14.10;69.60;;;;;;5104872;28;20028;-67
2022/11/02 06:56:15;;;;;;;3.95;1.02;;;14.10;69.70;;;;;;5099669;28;20048;-67
2022/11/02 06:58:41;;;;;;;1.35;0.75;;;14.10;69.70;;;;;;5112076;28;20479;-66
2022/11/02 07:01:07;;;;;;;6.30;0.88;;;14.10;69.80;;;;;;5101431;28;20396;-63
2022/11/02 07:03:34;;;;;;;4.97;1.20;;;14.00;69.90;;;;;;5109202;28;20049;-67
2022/11/02 07:06:00;;;;;;;5.25;0.98;;;14.00;70.20;;;;;;5086346;28;20047;-67
2022/11/02 07:08:27;;;;;;;1.92;0.82;;;13.90;70.20;;;;;;5095386;28;20122;-67
2022/11/02 07:10:53;;;;;;;3.58;1.20;;;13.90;70.20;;;;;;5106537;28;20040;-67
2022/11/02 07:13:19;;;;;;;3.75;0.93;;;13.90;70.30;;;;;;5108445;28;20028;-67
2022/11/02 07:15:45;;;;;;;1.05;0.90;;;13.90;70.40;;;;;;5100087;28;20031;-63
2022/11/02 07:18:11;;;;;;;1.65;1.10;;;13.80;70.50;;;;;;5101263;28;20035;-62
2022/11/02 07:20:40;;;;;;;3.50;0.65;;;13.80;70.60;;;;;;5089173;28;20399;-66
2022/11/02 07:23:07;;;;;;;1.85;0.60;;;13.90;70.60;;;;;;5091692;28;20056;-66
2022/11/02 07:25:33;;;;;;;1.88;0.95;;;13.80;70.60;;;;;;5095904;28;20024;-67
2022/11/02 07:28:03;;;;;;;1.70;0.68;;;13.90;70.70;;;;;;5105457;28;20034;-66
2022/11/02 07:30:30;;;;;;;2.65;1.08;;;13.90;70.70;;;;;;5107943;28;20039;-69
2022/11/02 07:32:56;;;;;;;3.60;0.82;;;13.80;70.60;;;;;;5092089;28;20433;-65
2022/11/02 07:35:22;;;;;;;8.00;0.90;;;13.90;70.60;;;;;;5076647;28;20510;-66
2022/11/02 07:38:01;;;;;;;2.95;1.10;;;13.90;70.60;;;;;;5091314;28;20067;-66
2022/11/02 07:40:29;;;;;;;14.82;1.00;;;13.90;70.60;;;;;;5104985;28;20123;-65
2022/11/02 07:42:58;;;;;;;6.22;1.25;;;13.80;70.70;;;;;;5090140;28;20494;-65
2022/11/02 07:45:24;;;;;;;2.15;0.93;;;13.90;70.60;;;;;;5092546;28;20024;-65
2022/11/02 07:47:50;;;;;;;4.63;1.02;;;13.90;70.60;;;;;;5094827;28;20027;-69
2022/11/02 07:50:18;;;;;;;6.85;1.00;;;14.00;70.50;;;;;;5099515;28;20012;-69
2022/11/02 07:52:46;;;;;;;0.65;0.50;;;14.00;70.40;;;;;;5093088;28;20027;-66
2022/11/02 07:55:22;;;;;;;4.40;1.20;;;14.00;70.40;;;;;;5081270;28;20018;-65
2022/11/02 07:57:55;;;;;;;2.20;0.80;;;14.00;70.30;;;;;;5102291;28;20159;-65
2022/11/02 08:00:21;;;;;;;3.25;1.27;;;14.10;70.30;;;;;;5087144;28;20030;-64
2022/11/02 08:02:46;;;;;;;3.13;1.30;;;14.10;70.20;;;;;;5085671;28;20040;-64
2022/11/02 08:05:12;;;;;;;1.77;1.13;;;14.20;70.10;;;;;;5083121;28;20550;-64
2022/11/02 08:07:37;;;;;;;2.35;0.32;;;14.30;70.00;;;;;;5083322;28;20372;-66
2022/11/02 08:10:04;;;;;;;2.55;0.88;;;14.40;69.70;;;;;;5089234;28;20044;-65
2022/11/02 08:12:29;;;;;;;3.53;0.98;;;14.40;70.30;;;;;;5069439;28;20051;-69
2022/11/02 08:14:56;;;;;;;4.20;1.23;;;14.40;70.00;;;;;;5084498;28;20020;-69
2022/11/02 08:17:23;;;;;;;1.88;1.10;;;14.20;70.30;;;;;;5087932;28;20075;-69
2022/11/02 08:19:49;;;;;;;0.63;0.63;;;14.20;70.70;;;;;;5081793;28;20110;-68
2022/11/02 08:22:15;;;;;;;2.65;0.90;;;14.10;70.70;;;;;;5078590;28;20495;-69
2022/11/02 08:24:46;;;;;;;1.27;0.77;;;14.20;70.80;;;;;;5082522;28;21406;-70
2022/11/02 08:27:11;;;;;;;1.55;0.77;;;14.20;70.70;;;;;;5088012;28;20087;-69
2022/11/02 08:29:37;;;;;;;1.02;0.73;;;14.20;70.60;;;;;;5075008;28;20055;-65
2022/11/02 08:32:03;;;;;;;5.78;1.23;;;14.10;70.60;;;;;;5079397;28;20028;-65
2022/11/02 08:34:28;;;;;;;2.72;1.10;;;14.10;70.50;;;;;;5071221;28;22003;-66
2022/11/02 08:36:54;;;;;;;2.25;1.08;;;14.10;70.50;;;;;;5082673;28;20039;-69
2022/11/02 08:39:20;;;;;;;6.03;1.40;;;14.00;70.50;;;;;;5084482;28;20036;-69
2022/11/02 08:41:45;;;;;;;1.02;0.90;;;14.00;70.50;;;;;;5087261;28;20085;-70
2022/11/02 08:44:11;;;;;;;4.80;1.13;;;14.10;70.60;;;;;;5083508;28;20032;-69
2022/11/02 08:46:36;;;;;;;2.63;0.80;;;14.10;70.40;;;;;;5086446;28;20028;-65
2022/11/02 08:49:02;;;;;;;4.68;1.27;;;14.00;70.10;;;;;;5096158;28;20036;-65
2022/11/02 08:51:28;;;;;;;2.15;1.08;;;14.10;70.10;;;;;;5087579;28;20475;-65
2022/11/02 08:53:54;;;;;;;1.65;0.98;;;14.20;70.00;;;;;;5075487;28;20471;-65
2022/11/02 08:56:19;;;;;;;0.68;0.57;;;14.40;69.50;;;;;;5081846;28;20025;-65
2022/11/02 08:58:45;;;;;;;3.00;0.80;;;14.50;69.00;;;;;;5071379;28;20039;-65
2022/11/02 09:01:11;;;;;;;3.10;1.02;;;14.60;68.70;;;;;;5083278;28;20048;-65
2022/11/02 09:03:36;;;;;;;1.98;0.95;;;14.70;68.20;;;;;;5081004;28;20028;-65
2022/11/02 09:06:02;;;;;;;3.65;0.90;;;14.80;67.90;;;;;;5086324;28;20039;-65
2022/11/02 09:08:29;;;;;;;5.80;1.27;;;14.80;67.80;;;;;;5086765;28;20486;-66
2022/11/02 09:10:58;;;;;;;3.72;1.05;;;15.00;67.50;;;;;;5085548;28;20406;-66
2022/11/02 09:13:24;;;;;;;2.40;1.00;;;15.10;67.00;;;;;;5085283;28;20060;-66
2022/11/02 09:15:52;;;;;;;2.72;0.77;;;15.20;66.50;;;;;;5087128;28;20467;-67
2022/11/02 09:18:18;;;;;;;2.22;1.10;;;15.30;66.50;;;;;;5086218;28;20044;-66
2022/11/02 09:20:45;;;;;;;2.25;1.15;;;15.20;65.60;;;;;;5086987;28;20080;-66
2022/11/02 09:23:11;;;;;;;6.28;1.35;;;15.30;66.00;;;;;;5076255;28;20442;-66
2022/11/02 09:25:39;;;;;;;1.98;1.05;;;15.40;65.60;;;;;;5079537;28;20024;-66
2022/11/02 09:28:05;;;;;;;1.02;0.80;;;15.40;65.20;;;;;;5078051;28;20136;-66
2022/11/02 09:30:31;;;;;;;2.83;1.05;;;15.50;65.00;;;;;;5084740;28;20485;-66
2022/11/02 09:32:59;;;;;;;4.45;0.65;;;15.50;65.00;;;;;;5086973;28;20103;-66
2022/11/02 09:35:28;;;;;;;1.63;1.05;;;15.70;64.90;;;;;;5083002;28;20020;-66
2022/11/02 09:37:53;;;;;;;2.70;0.65;;;15.80;64.50;;;;;;5084688;28;20470;-66
2022/11/02 09:40:25;;;;;;;4.85;1.25;;;15.80;64.50;;;;;;5082043;28;20102;-66
2022/11/02 09:42:58;;;;;;;1.10;0.70;;;15.80;64.30;;;;;;5089286;28;20129;-66
2022/11/02 09:45:24;;;;;;;5.82;1.02;;;15.80;64.20;;;;;;5090139;28;20105;-66
2022/11/02 09:47:58;;;;;;;3.97;0.85;;;15.80;63.80;;;;;;5091116;28;20035;-66
2022/11/02 09:50:32;;;;;;;4.03;0.98;;;15.80;63.90;;;;;;5090379;28;20024;-66
2022/11/02 09:53:03;;;;;;;5.20;1.05;;;15.90;63.50;;;;;;5089434;28;20161;-66
2022/11/02 09:55:36;;;;;;;1.42;0.60;;;16.00;63.50;;;;;;5092291;28;20500;-66
2022/11/02 09:58:10;;;;;;;4.32;1.00;;;16.10;63.30;;;;;;5087027;28;20080;-66
2022/11/02 10:00:39;;;;;;;2.65;0.50;;;16.20;63.40;;;;;;5086567;28;20066;-66
2022/11/02 10:03:37;;;;;;;3.45;1.17;;;16.30;63.20;;;;;;5099549;28;20063;-70
2022/11/02 10:06:14;;;;;;;3.45;0.77;;;16.60;62.30;;;;;;5089791;28;20060;-66
2022/11/02 10:08:51;;;;;;;1.00;0.73;;;16.50;61.00;;;;;;5091964;28;20016;-66
2022/11/02 10:11:50;;;;;;;2.53;0.93;;;16.40;61.20;;;;;;5096442;28;20028;-66
2022/11/02 10:14:31;;;;;;;1.77;0.68;;;16.40;61.80;;;;;;5088494;28;20024;-66
2022/11/02 10:17:12;;;;;;;2.08;0.98;;;16.40;61.50;;;;;;5093851;28;20060;-65
2022/11/02 10:19:40;;;;;;;2.97;0.77;;;16.40;61.30;;;;;;5094434;28;20027;-66
2022/11/02 10:22:12;;;;;;;2.83;0.93;;;16.60;61.10;;;;;;5093716;28;20108;-66
2022/11/02 10:24:45;;;;;;;2.83;0.70;;;16.60;60.80;;;;;;5090482;28;20475;-66
2022/11/02 10:27:28;;;;;;;2.20;0.85;;;16.60;60.90;;;;;;5083315;28;20036;-66
2022/11/02 10:30:14;;;;;;;2.45;0.75;;;16.60;60.70;;;;;;5094392;28;20032;-66
2022/11/02 10:32:41;;;;;;;6.40;1.15;;;16.80;60.80;;;;;;5089568;27;20409;-66
2022/11/02 10:35:21;;;;;;;2.50;0.70;;;16.90;60.00;;;;;;5085479;28;20043;-66
2022/11/02 10:38:14;;;;;;;3.97;1.17;;;17.00;59.90;;;;;;5083037;28;20471;-66
2022/11/02 10:41:08;;;;;;;1.55;0.60;;;17.20;59.30;;;;;;5104914;28;20012;-67
2022/11/02 10:43:43;;;;;;;1.95;0.98;;;17.40;58.60;;;;;;5091053;28;20494;-66
2022/11/02 10:46:41;;;;;;;4.43;0.85;;;17.50;58.40;;;;;;5099229;28;20487;-66
2022/11/02 10:49:12;;;;;;;1.52;0.82;;;17.50;58.00;;;;;;5092859;28;20531;-66
2022/11/02 10:51:38;;;;;;;0.88;0.60;;;17.50;58.50;;;;;;5103432;28;20550;-66
2022/11/02 10:54:14;;;;;;;0.93;0.68;;;17.40;58.40;;;;;;5084277;28;20040;-66
2022/11/02 10:56:42;;;;;;;1.63;0.98;;;17.50;58.60;;;;;;5091511;28;20547;-66
2022/11/02 10:59:17;;;;;;;0.90;0.77;;;17.70;57.90;;;;;;5093469;28;20043;-66
2022/11/02 11:02:05;;;;;;;5.60;1.10;;;17.80;57.20;;;;;;5091443;28;20047;-69
2022/11/02 11:04:33;;;;;;;3.15;1.27;;;17.50;56.80;;;;;;5095084;28;20023;-70
2022/11/02 11:07:26;;;;;;;2.40;0.85;;;17.40;57.50;;;;;;5100806;28;20043;-70
2022/11/02 11:09:55;;;;;;;4.85;0.93;;;17.30;57.30;;;;;;5093706;28;20096;-70
2022/11/02 11:12:29;;;;;;;5.18;0.82;;;17.40;57.50;;;;;;5093289;28;20093;-66
2022/11/02 11:14:57;;;;;;;1.90;0.63;;;17.70;57.30;;;;;;5091848;28;20028;-66
2022/11/02 11:17:31;;;;;;;0.93;0.93;;;18.20;57.10;;;;;;5104861;28;20403;-71
2022/11/02 11:19:57;;;;;;;0.55;0.40;;;18.60;56.20;;;;;;5082672;28;20383;-70
2022/11/02 11:22:31;;;;;;;3.10;0.70;;;18.90;55.40;;;;;;5095433;28;20538;-70
2022/11/02 11:25:12;;;;;;;0.85;0.75;;;18.90;55.40;;;;;;5097235;28;20032;-71
2022/11/02 11:27:53;;;;;;;3.42;1.10;;;18.80;55.20;;;;;;5107923;28;20102;-71
2022/11/02 11:30:27;;;;;;;4.00;1.53;;;18.90;56.00;;;;;;5092804;28;20032;-71
2022/11/02 11:32:53;;;;;;;3.75;0.88;;;19.10;54.10;;;;;;5094524;28;20317;-70
2022/11/02 11:35:20;;;;;;;2.28;0.73;;;18.90;54.50;;;;;;5092053;28;20030;-66
2022/11/02 11:37:59;;;;;;;1.00;0.73;;;18.70;55.20;;;;;;5105398;28;20031;-65
2022/11/02 11:40:26;;;;;;;1.95;0.93;;;18.60;55.50;;;;;;5082482;28;20029;-70
2022/11/02 11:42:56;;;;;;;3.53;0.77;;;19.00;55.40;;;;;;5100189;28;20016;-70
2022/11/02 11:45:31;;;;;;;3.83;1.48;;;19.90;53.00;;;;;;5106901;28;20074;-70
2022/11/02 11:48:01;;;;;;;1.13;0.98;;;20.50;51.00;;;;;;5109546;28;20098;-66
2022/11/02 11:50:27;;;;;;;3.55;1.00;;;21.90;49.50;;;;;;5110881;28;20019;-70
2022/11/02 11:53:21;;;;;;;3.42;1.38;;;22.70;46.70;;;;;;5109816;28;20386;-70
2022/11/02 11:55:49;;;;;;;1.42;1.08;;;22.90;46.70;;;;;;5110776;28;20062;-70
2022/11/02 11:58:23;;;;;;;5.25;0.90;;;24.20;45.00;;;;;;5104490;28;20044;-71
2022/11/02 12:01:02;;;;;;;0.95;0.82;;;25.80;43.10;;;;;;5103812;28;20099;-70
2022/11/02 12:03:27;;;;;;;1.70;0.88;;;27.20;40.40;;;;;;5110284;28;20045;-71
2022/11/02 12:06:19;;;;;;;1.05;0.90;;;28.00;39.30;;;;;;5109972;28;20028;-71
2022/11/02 12:09:02;;;;;;;2.72;0.70;;;28.30;38.20;;;;;;5110137;28;20035;-71
2022/11/02 12:11:27;;;;;;;3.50;0.77;;;28.20;36.90;;;;;;5090943;28;20024;-70
2022/11/02 12:14:17;;;;;;;5.68;0.85;;;26.90;38.10;;;;;;5106683;28;20081;-65
2022/11/02 12:17:22;;;;;;;1.08;0.60;;;25.50;39.50;;;;;;5106597;28;20035;-66
2022/11/02 12:19:53;;;;;;;1.90;0.80;;;25.20;40.30;;;;;;5094249;28;20034;-70
2022/11/02 12:22:18;;;;;;;0.70;0.47;;;26.20;39.70;;;;;;5096624;28;20024;-66
2022/11/02 12:25:16;;;;;;;1.48;0.85;;;27.30;38.70;;;;;;5099405;28;20023;-66
2022/11/02 12:27:50;;;;;;;0.40;0.40;;;28.20;36.50;;;;;;5075526;28;20044;-71
2022/11/02 12:30:19;;;;;;;0.60;0.60;;;28.00;36.50;;;;;;5088229;28;20020;-71
2022/11/02 12:32:53;;;;;;;1.05;0.80;;;28.00;36.60;;;;;;5088646;28;20399;-66
2022/11/02 12:35:25;;;;;;;3.67;1.15;;;28.30;36.00;;;;;;5088997;28;20039;-66
2022/11/02 12:38:02;;;;;;;1.58;0.90;;;28.40;35.60;;;;;;5088727;28;20036;-66
2022/11/02 12:40:46;;;;;;;1.30;0.60;;;27.90;35.50;;;;;;5076704;28;20371;-66
2022/11/02 12:43:25;;;;;;;1.33;0.93;;;26.60;36.00;;;;;;5083590;28;20353;-66
2022/11/02 12:46:29;;;;;;;1.02;0.80;;;24.60;38.20;;;;;;5085507;28;20021;-66
2022/11/02 12:49:07;;;;;;;1.63;0.52;;;23.20;40.40;;;;;;5072573;28;20036;-70
2022/11/02 12:51:44;;;;;;;3.65;0.82;;;22.20;43.00;;;;;;5085072;28;20051;-70
2022/11/02 12:54:12;;;;;;;1.60;0.63;;;21.50;43.50;;;;;;5083632;28;20016;-70
2022/11/02 12:56:43;;;;;;;1.70;0.70;;;20.90;45.00;;;;;;5087194;28;20036;-71
2022/11/02 12:59:33;;;;;;;1.75;0.52;;;20.50;45.00;;;;;;5090043;28;20090;-70
2022/11/02 13:02:10;;;;;;;0.40;0.40;;;20.40;45.50;;;;;;5087502;28;20040;-70
2022/11/02 13:04:46;;;;;;;2.10;1.20;;;20.50;45.50;;;;;;5093928;28;20031;-70
2022/11/02 13:07:17;;;;;;;0.57;0.40;;;20.80;44.70;;;;;;5100503;28;20153;-70
2022/11/02 13:10:03;;;;;;;0.60;0.60;;;20.80;44.90;;;;;;5091166;28;20029;-70
2022/11/02 13:12:32;;;;;;;1.42;0.70;;;20.90;44.90;;;;;;5096420;28;20020;-65
2022/11/02 13:14:59;;;;;;;1.40;0.52;;;21.20;45.20;;;;;;5100875;28;20059;-66
2022/11/02 13:17:43;;;;;;;0.75;0.73;;;21.60;44.10;;;;;;5104569;28;20063;-66
2022/11/02 13:20:23;;;;;;;0.75;0.70;;;21.00;44.20;;;;;;5089806;28;20031;-65